Time;durP1;ratioP1;P1;durP2;ratioP2;P2;SDS_P1;SDS_P2;PMS_P1;PMS_P2;Temp;Humidity;BMP_temperature;BMP_pressure;BME280_temperature;BME280_humidity;BME280_pressure;Samples;Min_cycle;Max_cycle;Signal;HPM_P1;HPM_P2
2022/06/02 00:02:09;;;;;;;6.75;2.85;;;;;;;19.86;36.71;101868.41;5077358;28;20393;-76
2022/06/02 00:04:47;;;;;;;8.52;2.92;;;;;;;19.79;36.85;101868.16;5112360;28;20039;-77
2022/06/02 00:07:36;;;;;;;5.35;2.75;;;;;;;19.77;37.01;101867.72;5112705;28;20453;-77
2022/06/02 00:10:17;;;;;;;8.05;4.10;;;;;;;19.74;36.93;101873.97;5112613;28;20073;-76
2022/06/02 00:12:52;;;;;;;4.85;2.28;;;;;;;19.73;36.69;101874.31;5112555;28;20027;-77
2022/06/02 00:15:31;;;;;;;5.03;2.00;;;;;;;19.61;36.66;101873.16;5112421;28;20084;-78
2022/06/02 00:18:10;;;;;;;2.63;2.30;;;;;;;19.35;36.91;101870.72;5112715;28;20028;-76
2022/06/02 00:20:39;;;;;;;4.13;2.33;;;;;;;19.32;36.86;101876.94;5112711;28;20382;-76
2022/06/02 00:23:13;;;;;;;7.03;3.85;;;;;;;19.34;36.89;101877.38;5112497;28;20023;-77
2022/06/02 00:25:51;;;;;;;7.03;2.80;;;;;;;19.31;36.75;101871.72;5112427;28;20024;-77
2022/06/02 00:28:27;;;;;;;8.18;3.40;;;;;;;19.36;36.93;101877.88;5112547;28;20015;-76
2022/06/02 00:31:05;;;;;;;7.07;4.22;;;;;;;19.33;37.06;101874.97;5114647;28;20020;-77
2022/06/02 00:34:02;;;;;;;6.18;3.70;;;;;;;19.34;36.96;101877.38;5116400;28;20084;-77
2022/06/02 00:36:38;;;;;;;7.22;3.55;;;;;;;19.26;37.17;101874.72;5116036;28;20027;-76
2022/06/02 00:39:04;;;;;;;6.15;3.97;;;;;;;19.19;37.25;101875.28;5116356;28;20497;-77
2022/06/02 00:42:03;;;;;;;7.15;4.35;;;;;;;19.20;37.32;101870.59;5116214;28;20022;-77
2022/06/02 00:44:50;;;;;;;6.00;4.32;;;;;;;19.13;37.27;101863.66;5115592;28;20051;-77
2022/06/02 00:47:43;;;;;;;8.73;4.35;;;;;;;19.05;37.59;101867.31;5097853;28;20039;-76
2022/06/02 00:50:20;;;;;;;6.95;4.60;;;;;;;19.09;37.44;101861.88;5115965;28;20048;-77
2022/06/02 00:53:05;;;;;;;5.43;3.92;;;;;;;19.04;37.74;101864.88;5116065;28;20016;-76
2022/06/02 00:58:53;;;;;;;6.63;4.35;;;;;;;18.91;37.92;101863.25;5116045;28;20130;-76
2022/06/02 01:01:31;;;;;;;6.60;4.57;;;;;;;18.92;37.61;101860.13;5115828;28;20093;-76
2022/06/02 01:03:59;;;;;;;6.70;4.18;;;;;;;18.66;38.41;101859.56;5112650;28;20385;-77
2022/06/02 01:06:53;;;;;;;4.47;4.03;;;;;;;18.75;37.94;101855.59;5112348;28;20023;-76
2022/06/02 01:09:28;;;;;;;8.95;4.65;;;;;;;18.81;37.75;101845.91;5101992;28;20039;-77
2022/06/02 01:12:06;;;;;;;8.05;4.63;;;;;;;18.78;37.99;101849.34;5115639;28;20092;-76
2022/06/02 01:14:55;;;;;;;6.38;4.63;;;;;;;18.84;37.98;101850.75;5115199;28;20549;-76
2022/06/02 01:17:24;;;;;;;7.38;4.30;;;;;;;18.87;37.83;101854.00;5131353;27;20032;-77
2022/06/02 01:20:05;;;;;;;7.28;4.50;;;;;;;18.79;37.99;101856.50;5096894;28;20035;-77
2022/06/02 01:22:55;;;;;;;6.80;4.30;;;;;;;18.78;37.98;101854.09;5102429;28;20036;-76
2022/06/02 01:25:49;;;;;;;7.15;4.72;;;;;;;18.62;38.27;101856.66;5102986;28;20024;-76
2022/06/02 01:28:46;;;;;;;5.38;4.28;;;;;;;18.67;37.99;101859.25;5095048;28;20024;-76
2022/06/02 01:31:31;;;;;;;8.40;5.20;;;;;;;18.64;37.88;101859.91;5094830;28;20035;-76
2022/06/02 01:34:11;;;;;;;6.40;4.28;;;;;;;18.58;37.83;101862.06;5076745;28;20390;-76
2022/06/02 01:36:46;;;;;;;5.10;3.58;;;;;;;18.56;37.75;101863.56;5112327;28;20381;-76
2022/06/02 01:39:45;;;;;;;5.43;4.10;;;;;;;18.46;37.86;101858.44;5096766;28;20023;-76
2022/06/02 01:42:41;;;;;;;6.75;4.18;;;;;;;18.45;37.74;101865.13;5096519;28;20054;-76
2022/06/02 01:45:39;;;;;;;7.28;4.30;;;;;;;18.67;37.39;101870.34;5091326;28;20043;-76
2022/06/02 01:48:16;;;;;;;6.78;4.88;;;;;;;18.68;37.26;101871.94;5094473;28;20043;-76
2022/06/02 01:51:01;;;;;;;6.22;4.10;;;;;;;18.64;37.37;101873.72;5093278;28;20043;-77
2022/06/02 01:53:50;;;;;;;7.93;4.95;;;;;;;18.49;37.45;101869.63;5093040;28;20036;-76
2022/06/02 01:57:07;;;;;;;6.22;4.03;;;;;;;18.49;37.57;101874.38;5092748;28;20375;-76
2022/06/02 01:59:59;;;;;;;11.57;4.90;;;;;;;18.29;37.85;101876.81;5072165;28;20032;-76
2022/06/02 02:02:50;;;;;;;5.35;4.07;;;;;;;18.19;37.95;101871.69;5072818;28;20036;-77
2022/06/02 02:05:35;;;;;;;7.65;4.18;;;;;;;18.26;37.75;101868.38;5079822;28;20028;-76
2022/06/02 02:08:17;;;;;;;6.72;4.57;;;;;;;18.13;38.09;101867.47;5094201;28;20020;-76
2022/06/02 02:11:06;;;;;;;5.65;4.53;;;;;;;18.10;38.03;101865.41;5092837;28;20028;-76
2022/06/02 02:14:07;;;;;;;6.03;4.95;;;;;;;18.06;38.19;101863.63;5093996;28;20059;-76
2022/06/02 02:16:51;;;;;;;5.70;4.20;;;;;;;18.10;38.17;101864.59;5093693;28;20035;-76
2022/06/02 02:19:22;;;;;;;6.22;4.32;;;;;;;18.12;38.13;101868.63;5093657;28;20035;-76
2022/06/02 02:22:12;;;;;;;6.93;4.13;;;;;;;18.16;38.14;101858.53;5093706;28;20036;-76
2022/06/02 02:24:56;;;;;;;7.53;5.13;;;;;;;18.17;38.11;101857.38;5092247;28;20040;-76
2022/06/02 02:30:28;;;;;;;6.30;4.50;;;;;;;18.21;38.04;101854.72;5093777;28;20448;-76
2022/06/02 02:33:09;;;;;;;7.80;4.10;;;;;;;18.10;38.17;101857.09;5093740;28;20386;-76
2022/06/02 02:36:01;;;;;;;5.90;4.35;;;;;;;18.14;38.21;101858.06;5093382;28;20028;-76
2022/06/02 02:38:48;;;;;;;6.47;4.63;;;;;;;18.20;38.14;101859.47;5065949;28;20036;-76
2022/06/02 02:41:30;;;;;;;5.18;3.75;;;;;;;18.22;37.65;101853.63;5093529;28;20386;-77
2022/06/02 02:44:05;;;;;;;4.90;3.70;;;;;;;18.18;37.69;101852.66;5103449;28;20047;-76
2022/06/02 02:46:51;;;;;;;4.80;3.67;;;;;;;18.06;37.42;101836.81;5113890;28;20076;-76
2022/06/02 02:49:32;;;;;;;6.45;4.65;;;;;;;17.99;37.89;101853.13;5113862;28;20385;-77
2022/06/02 02:52:05;;;;;;;5.35;4.13;;;;;;;18.02;37.80;101844.16;5113689;28;20476;-76
2022/06/02 02:54:42;;;;;;;6.93;4.07;;;;;;;17.95;37.88;101841.94;5113170;28;20073;-76
2022/06/02 02:57:13;;;;;;;5.25;4.32;;;;;;;18.00;37.70;101838.16;5113654;28;20019;-76
2022/06/02 02:59:54;;;;;;;5.55;4.70;;;;;;;18.00;37.77;101838.16;5113536;28;20034;-76
2022/06/02 03:02:23;;;;;;;7.60;4.78;;;;;;;17.96;37.88;101824.19;5113665;28;20023;-76
2022/06/02 03:05:23;;;;;;;6.88;4.70;;;;;;;17.96;37.94;101826.94;5113237;28;20087;-77
2022/06/02 03:07:49;;;;;;;6.55;4.95;;;;;;;17.89;38.17;101820.34;5095497;28;20040;-76
2022/06/02 03:10:36;;;;;;;7.22;4.47;;;;;;;17.91;38.06;101821.63;5113324;28;20028;-77
2022/06/02 03:13:38;;;;;;;5.43;3.90;;;;;;;17.76;38.31;101822.22;5113323;28;20031;-76
2022/06/02 03:16:12;;;;;;;5.18;3.92;;;;;;;17.69;38.12;101819.16;5092919;28;20032;-77
2022/06/02 03:18:47;;;;;;;4.25;3.72;;;;;;;17.56;38.47;101812.72;5092826;28;20106;-76
2022/06/02 03:21:36;;;;;;;6.90;4.57;;;;;;;17.63;38.21;101801.16;5112922;28;20038;-76
2022/06/02 03:24:42;;;;;;;6.85;5.43;;;;;;;17.56;38.35;101811.91;5112823;28;20512;-76
2022/06/02 03:27:19;;;;;;;6.25;4.85;;;;;;;17.69;38.06;101819.97;5113201;28;20024;-77
2022/06/02 03:30:03;;;;;;;10.73;5.35;;;;;;;17.65;38.17;101813.47;5113260;28;20019;-76
2022/06/02 03:32:38;;;;;;;6.68;3.60;;;;;;;17.69;38.16;101808.91;5113085;28;20493;-76
2022/06/02 03:35:12;;;;;;;4.97;3.80;;;;;;;17.65;38.14;101816.25;5112794;28;20067;-76
2022/06/02 03:37:54;;;;;;;5.38;4.35;;;;;;;17.56;38.29;101815.50;5113081;28;20496;-76
2022/06/02 03:40:20;;;;;;;7.68;4.28;;;;;;;17.54;38.49;101806.72;5112916;28;20016;-76
2022/06/02 03:43:11;;;;;;;4.90;4.20;;;;;;;17.54;38.47;101803.97;5112578;28;20351;-77
2022/06/02 03:45:55;;;;;;;6.93;4.00;;;;;;;17.57;38.07;101806.06;5092629;28;20102;-76
2022/06/02 03:48:38;;;;;;;7.13;4.10;;;;;;;17.46;38.39;101813.94;5074452;28;20166;-77
2022/06/02 03:51:33;;;;;;;7.45;4.40;;;;;;;17.45;38.25;101808.72;5092544;28;20474;-76
2022/06/02 03:54:26;;;;;;;6.07;4.38;;;;;;;17.41;38.05;101803.06;5102346;28;20043;-76
2022/06/02 03:57:12;;;;;;;5.20;3.90;;;;;;;17.43;38.25;101805.47;5112798;28;20063;-77
2022/06/02 04:00:09;;;;;;;4.90;3.95;;;;;;;17.37;38.04;101807.63;5112963;28;20030;-76
2022/06/02 04:02:42;;;;;;;6.20;4.53;;;;;;;17.41;37.88;101803.06;5112808;28;20034;-78
2022/06/02 04:05:17;;;;;;;6.38;4.15;;;;;;;17.32;38.10;101798.72;5113359;28;20153;-76
2022/06/02 04:07:52;;;;;;;5.82;4.18;;;;;;;17.37;38.17;101804.84;5116868;28;20136;-77
2022/06/02 04:10:39;;;;;;;8.32;4.82;;;;;;;17.35;38.44;101801.63;5116936;28;20043;-76
2022/06/02 04:13:39;;;;;;;6.93;4.57;;;;;;;17.35;38.36;101803.56;5116506;28;20485;-76
2022/06/02 04:16:12;;;;;;;4.40;3.85;;;;;;;17.41;38.52;101805.00;5098391;28;20119;-76
2022/06/02 04:18:44;;;;;;;6.10;4.35;;;;;;;17.40;38.26;101803.41;5116758;28;20389;-77
2022/06/02 04:21:40;;;;;;;7.50;4.88;;;;;;;17.37;38.47;101804.03;5098290;28;20032;-77
2022/06/02 04:24:08;;;;;;;6.50;4.15;;;;;;;17.40;38.50;101803.41;5116250;28;20028;-76
2022/06/02 04:26:54;;;;;;;6.30;4.80;;;;;;;17.38;38.54;101802.91;5116466;28;20543;-76
2022/06/02 04:29:26;;;;;;;5.30;4.68;;;;;;;17.40;38.74;101795.09;5132320;27;20035;-76
2022/06/02 04:32:15;;;;;;;8.40;4.22;;;;;;;17.48;38.55;101799.78;5098117;28;20106;-76
2022/06/02 04:35:13;;;;;;;4.88;4.18;;;;;;;17.44;38.67;101807.09;5116314;28;20031;-76
2022/06/02 04:38:03;;;;;;;8.02;3.95;;;;;;;17.51;38.43;101804.63;5115588;28;20044;-77
2022/06/02 04:40:46;;;;;;;;;;;;;;;17.35;38.59;101796.09;5064768;28;20039;-77
2022/06/02 04:43:37;;;;;;;5.40;4.05;;;;;;;17.49;38.11;101790.34;5115802;28;19916;-76
2022/06/02 04:46:23;;;;;;;6.32;4.28;;;;;;;17.50;38.49;101796.66;5116236;28;20023;-76
2022/06/02 04:49:07;;;;;;;9.07;4.95;;;;;;;17.38;38.57;101781.63;5132071;27;20074;-76
2022/06/02 04:52:16;;;;;;;10.10;5.80;;;;;;;17.50;38.86;101791.13;5116144;28;20423;-77
2022/06/02 04:54:50;;;;;;;5.97;4.30;;;;;;;17.66;38.52;101784.69;5076512;28;20067;-77
2022/06/02 04:57:35;;;;;;;9.63;6.00;;;;;;;17.70;38.74;101791.22;5116023;28;20062;-76
2022/06/02 05:00:17;;;;;;;7.63;5.38;;;;;;;17.67;39.03;101802.06;5115939;28;20584;-76
2022/06/02 05:03:04;;;;;;;8.02;4.90;;;;;;;17.82;38.88;101800.72;5097136;28;20035;-76
2022/06/02 05:05:59;;;;;;;8.63;5.32;;;;;;;17.85;38.97;101802.81;5115774;28;20028;-77
2022/06/02 05:09:18;;;;;;;9.35;4.65;;;;;;;17.81;39.49;101791.59;5131282;27;20027;-77
2022/06/02 05:11:59;;;;;;;5.68;4.50;;;;;;;17.84;39.33;101796.47;5032752;28;20037;-76
2022/06/02 05:14:36;;;;;;;12.85;5.20;;;;;;;17.94;39.31;101795.25;5032053;28;20044;-77
2022/06/02 05:17:14;;;;;;;6.40;4.50;;;;;;;18.17;38.92;101793.75;5072200;28;20486;-78
2022/06/02 05:20:17;;;;;;;18.15;6.25;;;;;;;18.10;39.62;101796.25;5095536;28;20086;-77
2022/06/02 05:23:25;;;;;;;12.02;5.57;;;;;;;18.30;39.16;101786.34;5078587;28;20086;-77
2022/06/02 05:26:26;;;;;;;8.60;5.20;;;;;;;18.32;39.80;101797.84;5078949;28;20077;-78
2022/06/02 05:29:16;;;;;;;7.05;4.88;;;;;;;18.51;39.56;101791.78;5115718;28;20019;-77
2022/06/02 05:32:06;;;;;;;7.10;5.55;;;;;;;18.57;39.64;101790.44;5115451;28;20465;-76
2022/06/02 05:34:37;;;;;;;13.30;5.82;;;;;;;18.70;39.76;101792.13;5114979;28;20032;-77
2022/06/02 05:37:32;;;;;;;11.57;6.20;;;;;;;18.78;39.59;101791.22;5115194;28;20028;-77
2022/06/02 05:40:22;;;;;;;10.07;5.80;;;;;;;18.88;39.77;101786.38;5115100;28;20028;-78
2022/06/02 05:43:08;;;;;;;7.50;5.63;;;;;;;18.93;39.84;101789.75;5114550;28;20023;-77
2022/06/02 05:45:55;;;;;;;8.48;5.53;;;;;;;19.10;39.71;101792.28;5096128;28;20477;-76
2022/06/02 05:48:35;;;;;;;6.85;5.22;;;;;;;19.21;40.40;101789.09;5115023;28;20034;-77
2022/06/02 05:51:11;;;;;;;9.23;6.13;;;;;;;19.30;40.02;101790.56;5096659;28;20382;-77
2022/06/02 05:53:43;;;;;;;8.65;5.90;;;;;;;19.45;40.55;101797.38;5114272;28;20065;-77
2022/06/02 05:56:14;;;;;;;7.55;5.25;;;;;;;19.90;39.73;101790.88;5112948;28;20030;-77
2022/06/02 05:59:02;;;;;;;9.98;6.10;;;;;;;20.06;39.76;101793.69;5114168;28;20023;-76
2022/06/02 06:02:07;;;;;;;8.02;5.53;;;;;;;20.25;40.18;101788.28;5114641;28;20026;-77
2022/06/02 06:04:42;;;;;;;6.40;5.00;;;;;;;20.60;39.53;101790.47;5095962;28;20028;-76
2022/06/02 06:07:19;;;;;;;9.65;5.45;;;;;;;20.84;39.36;101787.53;5114497;28;20019;-77
2022/06/02 06:09:59;;;;;;;5.68;4.70;;;;;;;21.20;38.88;101780.91;5114515;28;20055;-76
2022/06/02 06:12:33;;;;;;;7.50;5.65;;;;;;;21.32;38.72;101780.03;5096232;28;20062;-76
2022/06/02 06:15:17;;;;;;;8.13;6.00;;;;;;;21.62;38.61;101785.88;5095438;28;20046;-77
2022/06/02 06:18:00;;;;;;;6.75;5.50;;;;;;;21.69;38.62;101791.63;5100856;28;20390;-81
2022/06/02 06:20:44;;;;;;;5.97;4.88;;;;;;;21.87;38.52;101781.66;5095173;28;20084;-76
2022/06/02 06:23:15;;;;;;;8.68;5.15;;;;;;;22.01;38.36;101786.72;5113620;28;20393;-76
2022/06/02 06:26:11;;;;;;;10.57;5.22;;;;;;;21.59;39.06;101790.19;5113301;28;20034;-75
2022/06/02 06:29:04;;;;;;;7.55;5.03;;;;;;;21.60;39.49;101782.66;5086859;28;20043;-75
2022/06/02 06:31:48;;;;;;;6.68;4.95;;;;;;;21.57;39.61;101777.81;5052044;28;20126;-74
2022/06/02 06:34:26;;;;;;;9.25;5.05;;;;;;;21.56;39.63;101781.78;5088895;28;20546;-75
2022/06/02 06:37:24;;;;;;;8.43;4.75;;;;;;;21.77;39.52;101789.78;5111822;28;20011;-76
2022/06/02 06:40:17;;;;;;;7.55;4.93;;;;;;;21.95;39.30;101790.16;5113697;28;20032;-76
2022/06/02 06:43:11;;;;;;;9.85;5.65;;;;;;;21.88;39.74;101797.19;5113464;28;20057;-76
2022/06/02 06:45:48;;;;;;;10.27;6.13;;;;;;;22.02;39.54;101793.91;5081601;28;20032;-76
2022/06/02 06:48:30;;;;;;;21.35;7.35;;;;;;;22.02;39.62;101790.31;5110561;28;20028;-76
2022/06/02 06:51:16;;;;;;;7.32;4.35;;;;;;;22.15;39.60;101791.81;5112119;28;20085;-75
2022/06/02 06:53:59;;;;;;;7.93;5.05;;;;;;;22.31;39.54;101797.31;5092188;28;20016;-76
2022/06/02 06:56:35;;;;;;;8.15;4.82;;;;;;;22.36;39.26;101803.38;5107617;28;20027;-72
2022/06/02 06:59:25;;;;;;;9.70;5.88;;;;;;;22.23;39.80;101798.34;5109445;28;20023;-72
2022/06/02 07:02:12;;;;;;;8.57;5.35;;;;;;;22.35;39.61;101795.38;5111295;28;20029;-72
2022/06/02 07:04:45;;;;;;;6.07;4.45;;;;;;;22.34;39.27;101791.00;5112181;28;20501;-72
2022/06/02 07:07:31;;;;;;;6.25;5.30;;;;;;;22.55;39.04;101785.84;5112372;28;20035;-75
2022/06/02 07:10:12;;;;;;;10.45;5.63;;;;;;;22.54;38.91;101791.78;5112918;28;20023;-72
2022/06/02 07:13:05;;;;;;;7.20;5.30;;;;;;;22.66;39.01;101784.03;5093859;28;20023;-74
2022/06/02 07:15:39;;;;;;;7.55;5.72;;;;;;;22.79;39.01;101784.69;5092470;28;20023;-76
2022/06/02 07:18:19;;;;;;;7.32;5.25;;;;;;;22.87;38.78;101794.78;5110819;28;20069;-76
2022/06/02 07:21:15;;;;;;;7.60;5.18;;;;;;;23.06;39.07;101782.78;5094362;28;20054;-76
2022/06/02 07:24:11;;;;;;;6.82;4.97;;;;;;;23.19;38.74;101792.53;5112166;28;20043;-76
2022/06/02 07:26:58;;;;;;;7.72;5.10;;;;;;;23.18;38.74;101790.94;5113179;28;20031;-77
2022/06/02 07:29:47;;;;;;;5.13;4.05;;;;;;;23.18;38.31;101785.34;5112587;28;20462;-76
2022/06/02 07:32:30;;;;;;;9.23;4.40;;;;;;;23.37;37.91;101784.47;5110149;28;20058;-77
2022/06/02 07:35:24;;;;;;;6.75;4.78;;;;;;;23.25;38.05;101781.88;5112182;28;20118;-76
2022/06/02 07:38:17;;;;;;;4.45;3.67;;;;;;;23.27;37.44;101779.50;5112780;28;20035;-76
2022/06/02 07:41:21;;;;;;;5.05;3.90;;;;;;;23.26;37.57;101783.47;5128435;27;20053;-77
2022/06/02 07:44:04;;;;;;;6.22;4.35;;;;;;;23.41;37.27;101784.50;5112712;28;20051;-75
2022/06/02 07:47:02;;;;;;;7.20;4.93;;;;;;;23.60;37.33;101781.66;5112938;28;20164;-76
2022/06/02 07:49:33;;;;;;;8.98;4.22;;;;;;;23.55;37.24;101787.50;5112973;28;20540;-76
2022/06/02 07:52:36;;;;;;;4.97;4.07;;;;;;;23.61;37.49;101788.84;5112849;28;20106;-76
2022/06/02 07:55:39;;;;;;;6.95;4.25;;;;;;;23.78;37.55;101791.06;5112938;28;20363;-76
2022/06/02 07:58:10;;;;;;;5.28;4.07;;;;;;;24.06;36.99;101793.41;5112819;28;20023;-76
2022/06/02 08:01:17;;;;;;;7.82;4.20;;;;;;;24.07;37.87;101792.22;5112891;28;20023;-76
2022/06/02 08:03:50;;;;;;;7.35;4.20;;;;;;;24.26;37.84;101790.47;5030028;28;20030;-76
2022/06/02 08:06:50;;;;;;;7.20;3.90;;;;;;;24.51;38.04;101787.97;5102867;28;20118;-76
2022/06/02 08:09:21;;;;;;;6.97;4.22;;;;;;;24.63;37.78;101782.91;5112780;28;20024;-76
2022/06/02 08:12:03;;;;;;;5.22;3.67;;;;;;;24.90;37.56;101777.97;5112814;28;20030;-76
2022/06/02 08:15:06;;;;;;;6.82;4.75;;;;;;;25.26;37.27;101769.09;5112830;28;20064;-76
2022/06/02 08:17:43;;;;;;;4.75;4.22;;;;;;;25.36;36.86;101776.75;5112633;28;20024;-76
2022/06/02 08:20:28;;;;;;;5.85;4.07;;;;;;;25.30;36.68;101770.72;5112704;28;20103;-76
2022/06/02 08:23:11;;;;;;;7.00;4.53;;;;;;;25.37;36.03;101767.16;5112607;28;20045;-77
2022/06/02 08:25:47;;;;;;;8.82;4.82;;;;;;;25.42;35.79;101773.19;5112881;28;20420;-77
2022/06/02 08:28:34;;;;;;;5.00;3.55;;;;;;;25.36;36.03;101776.75;5112676;28;20055;-77
2022/06/02 08:31:39;;;;;;;4.18;3.10;;;;;;;25.35;36.17;101766.75;5112671;28;20028;-76
2022/06/02 08:34:10;;;;;;;4.10;3.70;;;;;;;25.53;35.68;101775.25;5112407;28;20028;-75
2022/06/02 08:36:43;;;;;;;6.63;3.97;;;;;;;25.37;35.75;101770.75;5112489;28;20028;-75
2022/06/02 08:41:28;;;;;;;7.50;4.70;;;;;;;25.24;36.06;101768.66;5090064;28;20410;-76
2022/06/02 08:44:38;;;;;;;8.63;4.70;;;;;;;25.26;35.98;101783.88;5047296;28;20131;-76
2022/06/02 08:47:07;;;;;;;5.20;4.40;;;;;;;25.15;36.03;101777.38;5047473;28;20414;-75
2022/06/02 08:50:16;;;;;;;6.45;5.28;;;;;;;25.14;36.29;101773.78;5087123;28;20368;-76
2022/06/02 08:53:00;;;;;;;6.65;3.63;;;;;;;25.45;35.15;101766.81;5077069;28;20040;-76
2022/06/02 08:56:06;;;;;;;5.60;4.50;;;;;;;25.43;34.81;101765.59;5088305;28;20421;-75
2022/06/02 08:58:59;;;;;;;6.63;5.35;;;;;;;25.40;34.80;101764.41;5089493;28;20060;-76
2022/06/02 09:02:01;;;;;;;6.00;5.18;;;;;;;25.36;34.24;101769.16;5088431;28;20079;-76
2022/06/02 09:05:04;;;;;;;9.18;4.82;;;;;;;25.16;34.45;101765.00;5119981;28;20063;-76
2022/06/02 09:07:35;;;;;;;8.18;5.68;;;;;;;25.25;34.58;101767.50;5089858;28;20020;-76
2022/06/02 09:10:10;;;;;;;6.22;5.63;;;;;;;25.41;34.91;101763.19;5089403;28;20483;-77
2022/06/02 09:12:42;;;;;;;7.13;5.93;;;;;;;25.53;34.94;101764.06;5089394;28;20070;-77
2022/06/02 09:15:13;;;;;;;5.40;4.55;;;;;;;25.09;35.93;101776.13;5089330;28;20525;-77
2022/06/02 09:17:56;;;;;;;6.70;4.25;;;;;;;25.20;35.58;101768.66;5089182;28;20099;-76
2022/06/02 09:20:48;;;;;;;6.35;4.22;;;;;;;25.06;35.51;101768.53;5088137;28;20444;-76
2022/06/02 09:23:16;;;;;;;6.90;4.60;;;;;;;25.08;35.67;101764.16;5089390;28;20048;-77
2022/06/02 09:26:12;;;;;;;5.28;3.40;;;;;;;25.12;35.76;101775.38;5089074;28;20029;-77
2022/06/02 09:28:56;;;;;;;3.50;3.13;;;;;;;25.05;36.11;101769.72;5087837;28;20115;-77
2022/06/02 09:32:03;;;;;;;4.70;2.97;;;;;;;25.03;36.13;101780.47;5089109;28;20052;-77
2022/06/02 09:34:57;;;;;;;4.00;3.15;;;;;;;25.18;36.08;101763.44;5085896;28;20047;-77
2022/06/02 09:37:34;;;;;;;3.00;2.60;;;;;;;25.03;36.46;101763.69;5089026;28;20024;-76
2022/06/02 09:40:26;;;;;;;4.40;3.58;;;;;;;25.02;36.45;101757.31;5087004;28;20070;-77
2022/06/02 09:43:10;;;;;;;6.05;3.20;;;;;;;25.05;36.39;101761.34;5079681;28;20059;-78
2022/06/02 09:46:03;;;;;;;6.55;3.25;;;;;;;24.86;36.26;101757.59;5085090;28;20363;-77
2022/06/02 09:48:51;;;;;;;7.25;2.80;;;;;;;25.06;35.76;101766.53;5087284;28;20024;-77
2022/06/02 09:51:29;;;;;;;4.05;2.38;;;;;;;25.33;35.13;101750.38;5064476;28;20055;-77
2022/06/02 09:54:33;;;;;;;2.72;1.67;;;;;;;25.21;34.24;101750.66;5074316;28;20616;-77
2022/06/02 09:56:58;;;;;;;2.95;1.50;;;;;;;25.25;33.96;101745.91;5074506;28;20025;-77
2022/06/02 09:59:41;;;;;;;3.10;1.60;;;;;;;25.10;32.91;101744.22;5074283;28;20073;-77
2022/06/02 10:02:23;;;;;;;2.65;1.45;;;;;;;25.51;32.35;101747.66;5073145;28;20029;-77
2022/06/02 10:05:19;;;;;;;2.70;1.65;;;;;;;25.53;32.13;101744.47;5074450;28;20030;-77
2022/06/02 10:08:12;;;;;;;3.72;1.38;;;;;;;26.30;30.56;101746.03;5078005;28;20433;-77
2022/06/02 10:10:59;;;;;;;9.50;2.13;;;;;;;26.42;30.62;101734.44;5075074;28;20078;-78
2022/06/02 10:13:58;;;;;;;4.10;1.60;;;;;;;26.69;30.44;101740.50;5072534;28;20035;-78
2022/06/02 10:16:38;;;;;;;4.30;2.03;;;;;;;26.54;31.19;101752.91;5071534;28;20028;-77
2022/06/02 10:19:40;;;;;;;5.85;2.03;;;;;;;26.19;31.52;101745.19;5071737;28;20081;-76
2022/06/02 10:22:34;;;;;;;2.38;2.13;;;;;;;26.49;31.60;101750.47;5071500;28;20025;-77
2022/06/02 10:25:27;;;;;;;3.05;2.05;;;;;;;26.64;31.45;101746.50;5068902;28;20134;-77
2022/06/02 10:27:57;;;;;;;4.72;2.42;;;;;;;26.41;32.16;101741.25;5073553;28;20107;-76
2022/06/02 10:30:22;;;;;;;3.42;2.20;;;;;;;26.38;32.17;101738.44;5074243;28;20013;-77
2022/06/02 10:32:48;;;;;;;4.55;2.75;;;;;;;26.26;32.88;101736.78;5074143;28;20119;-76
2022/06/02 10:35:25;;;;;;;3.15;2.85;;;;;;;25.96;32.79;101739.91;5074052;28;20024;-76
2022/06/02 10:37:56;;;;;;;3.70;2.40;;;;;;;26.03;32.62;101734.31;5073907;28;20382;-76
2022/06/02 10:40:40;;;;;;;9.73;3.28;;;;;;;26.12;32.37;101737.56;5073609;28;20036;-77
2022/06/02 10:43:29;;;;;;;94.70;14.80;;;;;;;26.00;32.04;101735.94;5071879;28;20031;-76
2022/06/02 10:46:22;;;;;;;17.65;5.78;;;;;;;25.88;32.91;101732.69;5072110;28;20028;-76
2022/06/02 10:49:12;;;;;;;5.65;3.92;;;;;;;25.91;33.12;101737.47;5071013;28;20124;-76
2022/06/02 10:52:06;;;;;;;3.55;2.88;;;;;;;26.27;32.32;101735.59;5072319;28;20039;-77
2022/06/02 10:54:50;;;;;;;4.68;3.05;;;;;;;26.39;32.77;101738.06;5096811;28;20028;-77
2022/06/02 10:57:53;;;;;;;6.40;2.92;;;;;;;26.19;32.91;101745.19;5071985;28;20108;-77
2022/06/02 11:00:53;;;;;;;5.70;3.05;;;;;;;26.49;32.44;101744.88;5069877;28;20029;-76
2022/06/02 11:03:38;;;;;;;;;;;;;;;26.62;31.78;101736.88;5069677;28;20032;-76
2022/06/02 11:06:41;;;;;;;5.30;2.75;;;;;;;26.53;31.45;101735.28;5072634;28;19912;-76
2022/06/02 11:09:36;;;;;;;4.15;2.05;;;;;;;26.47;31.00;101738.88;5072954;28;20708;-76
2022/06/02 11:12:20;;;;;;;3.53;1.80;;;;;;;26.77;31.17;101732.88;5073745;28;20111;-76
2022/06/02 11:15:15;;;;;;;8.57;2.22;;;;;;;26.87;31.04;101732.06;5071862;28;20051;-76
2022/06/02 11:18:09;;;;;;;4.10;1.85;;;;;;;26.70;30.59;101730.88;5070337;28;20021;-76
2022/06/02 11:20:54;;;;;;;1.70;1.55;;;;;;;26.58;30.38;101728.47;5070677;28;20055;-76
2022/06/02 11:23:47;;;;;;;5.85;1.42;;;;;;;26.61;30.04;101727.69;5071460;28;20017;-75
2022/06/02 11:26:25;;;;;;;3.13;1.25;;;;;;;26.76;29.46;101731.28;5070597;28;20027;-77
2022/06/02 11:29:15;;;;;;;11.90;1.95;;;;;;;26.66;28.93;101724.47;5073157;28;20028;-76
2022/06/02 11:31:55;;;;;;;3.83;1.30;;;;;;;26.74;28.75;101716.84;5073199;28;20029;-76
2022/06/02 11:34:45;;;;;;;2.15;1.30;;;;;;;26.63;28.09;101711.25;5071801;28;20479;-77
2022/06/02 11:37:40;;;;;;;2.08;1.00;;;;;;;26.48;28.09;101721.66;5073396;28;20378;-77
2022/06/02 11:40:42;;;;;;;6.28;1.20;;;;;;;26.75;28.05;101724.06;5071992;28;20074;-76
2022/06/02 11:43:16;;;;;;;1.98;1.05;;;;;;;26.67;28.02;101723.25;5073102;28;20524;-76
2022/06/02 11:46:15;;;;;;;1.65;1.05;;;;;;;26.82;28.58;101721.25;5072975;28;20039;-76
2022/06/02 11:49:05;;;;;;;2.38;0.95;;;;;;;26.86;28.87;101712.84;5071380;28;20476;-76
2022/06/02 11:52:11;;;;;;;1.83;1.58;;;;;;;25.69;30.80;101717.78;5069904;28;20024;-76
2022/06/02 11:55:03;;;;;;;2.58;1.40;;;;;;;26.02;30.54;101721.53;5072029;28;20025;-76
2022/06/02 11:57:59;;;;;;;8.73;1.98;;;;;;;25.46;31.04;101717.25;5071264;28;20013;-75
2022/06/02 12:00:33;;;;;;;2.55;1.10;;;;;;;25.72;30.51;101719.03;5070595;28;20029;-76
2022/06/02 12:03:15;;;;;;;4.15;1.20;;;;;;;25.86;30.48;101727.47;5072820;28;20020;-76
2022/06/02 12:06:08;;;;;;;3.13;1.63;;;;;;;25.81;31.31;101718.66;5071557;28;20032;-76
2022/06/02 12:08:33;;;;;;;6.57;2.80;;;;;;;25.67;31.67;101717.34;5072179;28;20063;-76
2022/06/02 12:11:27;;;;;;;3.80;1.88;;;;;;;25.55;32.61;101719.72;5070550;28;20060;-76
2022/06/02 12:14:37;;;;;;;2.33;1.55;;;;;;;25.64;32.56;101715.34;5070504;28;20028;-76
2022/06/02 12:17:02;;;;;;;;;;;;;;;25.38;32.22;101705.22;5072611;28;20471;-74
2022/06/02 12:19:52;;;;;;;3.85;2.00;;;;;;;25.65;32.26;101710.56;5070743;28;19920;-76
2022/06/02 12:22:53;;;;;;;4.65;1.70;;;;;;;25.35;32.97;101710.81;5071337;28;20438;-75
2022/06/02 12:25:39;;;;;;;4.80;1.83;;;;;;;25.29;33.06;101707.56;5072700;28;20363;-76
2022/06/02 12:28:14;;;;;;;2.40;1.20;;;;;;;25.46;32.50;101706.84;5071292;28;20498;-77
2022/06/02 12:30:51;;;;;;;2.78;1.13;;;;;;;25.46;32.19;101715.25;5072571;28;20363;-77
2022/06/02 12:33:46;;;;;;;3.85;1.75;;;;;;;25.33;31.46;101711.19;5072658;28;20028;-77
2022/06/02 12:36:32;;;;;;;2.25;1.30;;;;;;;25.25;30.98;101706.75;5072420;28;20024;-77
2022/06/02 12:39:40;;;;;;;4.40;1.55;;;;;;;25.24;31.22;101702.38;5071476;28;20124;-77
2022/06/02 12:42:40;;;;;;;5.00;1.55;;;;;;;25.10;32.10;101710.66;5071097;28;20036;-77
2022/06/02 12:45:15;;;;;;;9.68;2.17;;;;;;;25.46;31.83;101706.84;5071824;28;20028;-76
2022/06/02 12:48:19;;;;;;;4.47;1.52;;;;;;;25.56;31.66;101704.53;5072098;28;20096;-77
2022/06/02 12:50:51;;;;;;;4.35;1.48;;;;;;;25.47;31.88;101696.50;5071475;28;20162;-77
2022/06/02 12:53:49;;;;;;;2.70;1.63;;;;;;;25.44;31.91;101698.06;5069641;28;20025;-77
2022/06/02 12:56:25;;;;;;;6.20;1.52;;;;;;;25.48;31.96;101697.28;5064739;28;20032;-78
2022/06/02 12:59:11;;;;;;;5.05;1.70;;;;;;;25.64;30.84;101692.16;5071676;28;20462;-76